createdAt,value
2024-04-08T00:00:29.096Z,27.98
2024-04-08T00:01:29.081Z,27.97
2024-04-08T00:02:29.143Z,27.97
2024-04-08T00:03:29.079Z,27.95
2024-04-08T00:04:29.107Z,27.97
2024-04-08T00:05:29.086Z,27.97
2024-04-08T00:06:29.081Z,27.95
2024-04-08T00:07:29.083Z,27.94
2024-04-08T00:08:29.107Z,27.97
2024-04-08T00:09:43.737Z,27.95
2024-04-08T00:10:29.091Z,27.95
2024-04-08T00:11:29.131Z,27.95
2024-04-08T00:12:35.743Z,27.92
2024-04-08T00:13:29.110Z,27.94
2024-04-08T00:14:29.115Z,27.95
2024-04-08T00:15:50.248Z,27.95
2024-04-08T00:16:29.107Z,27.92
2024-04-08T00:17:29.131Z,27.94
2024-04-08T00:18:56.745Z,27.92
2024-04-08T00:19:29.173Z,27.94
2024-04-08T00:20:29.144Z,27.94
2024-04-08T00:21:29.125Z,27.89
2024-04-08T00:22:29.126Z,27.92
2024-04-08T00:23:29.170Z,27.92
2024-04-08T00:24:29.125Z,27.94
2024-04-08T00:25:29.142Z,27.92
2024-04-08T00:26:29.170Z,27.92
2024-04-08T00:27:29.134Z,27.91
2024-04-08T00:28:29.163Z,27.92
2024-04-08T00:29:29.157Z,27.88
2024-04-08T00:30:29.139Z,27.91
2024-04-08T00:31:29.151Z,27.91
2024-04-08T00:32:29.192Z,27.89
2024-04-08T00:33:29.145Z,27.88
2024-04-08T00:34:35.754Z,27.91
2024-04-08T00:35:29.196Z,27.92
2024-04-08T00:36:29.150Z,27.91
2024-04-08T00:37:29.153Z,27.91
2024-04-08T00:38:29.190Z,27.91
2024-04-08T00:39:29.173Z,27.91
2024-04-08T00:40:29.152Z,27.92
2024-04-08T00:41:29.155Z,27.91
2024-04-08T00:42:29.151Z,27.89
2024-04-08T00:43:50.154Z,27.88
2024-04-08T00:44:29.197Z,27.89
2024-04-08T00:45:29.161Z,27.88
2024-04-08T00:46:29.154Z,27.89
2024-04-08T00:47:29.246Z,27.89
2024-04-08T00:48:29.155Z,27.88
2024-04-08T00:49:29.182Z,27.87
2024-04-08T00:50:29.173Z,27.88
2024-04-08T00:51:29.169Z,27.87
2024-04-08T00:52:29.181Z,27.87
2024-04-08T00:53:29.206Z,27.87
2024-04-08T00:54:29.162Z,27.87
2024-04-08T00:55:29.211Z,27.87
2024-04-08T00:56:29.198Z,27.88
2024-04-08T00:57:29.231Z,27.87
2024-04-08T00:58:29.231Z,27.87
2024-04-08T00:59:29.278Z,27.85
2024-04-08T01:00:29.221Z,27.84
2024-04-08T01:01:29.240Z,27.84
2024-04-08T01:02:29.225Z,27.87
2024-04-08T01:03:29.211Z,27.84
2024-04-08T01:04:29.213Z,27.85
2024-04-08T01:05:29.253Z,27.85
2024-04-08T01:06:29.202Z,27.85
2024-04-08T01:07:29.201Z,27.85
2024-04-08T01:08:35.775Z,27.83
2024-04-08T01:09:29.223Z,27.85
2024-04-08T01:10:29.225Z,27.84
2024-04-08T01:11:53.277Z,27.84
2024-04-08T01:12:29.213Z,27.81
2024-04-08T01:13:29.212Z,27.83
2024-04-08T01:14:29.237Z,27.83
2024-04-08T01:15:29.209Z,27.83
2024-04-08T01:16:29.217Z,27.84
2024-04-08T01:17:29.278Z,27.83
2024-04-08T01:18:29.215Z,27.81
2024-04-08T01:19:29.217Z,27.83
2024-04-08T01:20:29.245Z,27.84
2024-04-08T01:21:29.214Z,27.83
2024-04-08T01:22:29.219Z,27.83
2024-04-08T01:23:29.271Z,27.83
2024-04-08T01:24:29.217Z,27.83
2024-04-08T01:25:29.226Z,27.83
2024-04-08T01:26:29.242Z,27.81
2024-04-08T01:27:29.229Z,27.81
2024-04-08T01:28:29.224Z,27.81
2024-04-08T01:29:29.281Z,27.83
2024-04-08T01:30:29.237Z,27.81
2024-04-08T01:31:29.271Z,27.80
2024-04-08T01:32:29.248Z,27.80
2024-04-08T01:33:50.247Z,27.80
2024-04-08T01:34:29.244Z,27.81
2024-04-08T01:35:29.279Z,27.78
2024-04-08T01:36:43.795Z,27.83
2024-04-08T01:37:29.406Z,27.78
2024-04-08T01:38:29.445Z,27.80
2024-04-08T01:39:29.427Z,27.78
2024-04-08T01:40:29.454Z,27.77
2024-04-08T01:41:29.520Z,27.80
2024-04-08T01:42:29.478Z,27.78
2024-04-08T01:43:29.482Z,27.78
2024-04-08T01:44:29.526Z,27.78
2024-04-08T01:45:29.533Z,27.77
2024-04-08T01:46:29.552Z,27.80
2024-04-08T01:47:29.560Z,27.77
2024-04-08T01:48:29.571Z,27.77
2024-04-08T01:49:29.583Z,27.80
2024-04-08T01:50:29.625Z,27.80
2024-04-08T01:51:29.619Z,27.77
2024-04-08T01:52:30.290Z,27.78
2024-04-08T01:53:29.645Z,27.77
2024-04-08T01:54:29.619Z,27.80
2024-04-08T01:55:29.625Z,27.78
2024-04-08T01:56:29.643Z,27.77
2024-04-08T01:57:29.643Z,27.80
2024-04-08T01:58:44.314Z,27.80
2024-04-08T01:59:29.671Z,27.78
2024-04-08T02:00:29.706Z,27.77
2024-04-08T02:01:50.655Z,27.75
2024-04-08T02:02:29.672Z,27.78
2024-04-08T02:03:29.663Z,27.80
2024-04-08T02:05:05.299Z,27.78
2024-04-08T02:05:29.676Z,27.75
2024-04-08T02:06:29.652Z,27.77
2024-04-08T02:07:29.652Z,27.77
2024-04-08T02:08:29.680Z,27.75
2024-04-08T02:09:29.673Z,27.75
2024-04-08T02:10:29.654Z,27.75
2024-04-08T02:11:29.669Z,27.75
2024-04-08T02:12:29.664Z,27.75
2024-04-08T02:13:29.667Z,27.74
2024-04-08T02:14:29.720Z,27.77
2024-04-08T02:15:29.663Z,27.75
2024-04-08T02:16:29.653Z,27.74
2024-04-08T02:17:29.694Z,27.74
2024-04-08T02:18:29.672Z,27.74
2024-04-08T02:19:29.667Z,27.77
2024-04-08T02:20:29.687Z,27.75
2024-04-08T02:21:29.681Z,27.77
2024-04-08T02:22:29.673Z,27.72
2024-04-08T02:23:36.306Z,27.75
2024-04-08T02:24:29.679Z,27.75
2024-04-08T02:25:29.689Z,27.74
2024-04-08T02:26:32.410Z,27.75
2024-04-08T02:27:29.690Z,27.72
2024-04-08T02:28:29.678Z,27.72
2024-04-08T02:29:58.326Z,27.74
2024-04-08T02:30:29.691Z,27.69
2024-04-08T02:31:29.696Z,27.74
2024-04-08T02:32:29.704Z,27.74
2024-04-08T02:33:29.700Z,27.71
2024-04-08T02:34:29.699Z,27.72
2024-04-08T02:35:29.746Z,27.74
2024-04-08T02:36:29.712Z,27.72
2024-04-08T02:37:29.718Z,27.72
2024-04-08T02:38:29.732Z,27.72
2024-04-08T02:39:29.725Z,27.71
2024-04-08T02:40:29.723Z,27.69
2024-04-08T02:41:29.751Z,27.72
2024-04-08T02:42:29.711Z,27.72
2024-04-08T02:43:29.708Z,27.69
2024-04-08T02:44:29.741Z,27.68
2024-04-08T02:45:29.720Z,27.71
2024-04-08T02:46:29.717Z,27.68
2024-04-08T02:47:29.799Z,27.69
2024-04-08T02:48:36.322Z,27.69
2024-04-08T02:49:29.711Z,27.69
2024-04-08T02:50:29.791Z,27.71
2024-04-08T02:51:44.378Z,27.69
2024-04-08T02:52:29.969Z,27.69
2024-04-08T02:53:29.986Z,27.68
2024-04-08T02:54:44.823Z,27.68
2024-04-08T02:55:29.984Z,27.69
2024-04-08T02:56:29.983Z,27.69
2024-04-08T02:57:58.824Z,27.68
2024-04-08T02:58:29.995Z,27.68
2024-04-08T02:59:30.010Z,27.68
2024-04-08T03:00:30.062Z,27.68
2024-04-08T03:01:29.989Z,27.68
2024-04-08T03:02:30.031Z,27.68
2024-04-08T03:03:29.985Z,27.69
2024-04-08T03:04:30.001Z,27.68
2024-04-08T03:05:29.991Z,27.68
2024-04-08T03:06:32.339Z,27.67
2024-04-08T03:07:29.994Z,27.67
2024-04-08T03:08:30.015Z,27.67
2024-04-08T03:09:30.002Z,27.69
2024-04-08T03:10:29.997Z,27.68
2024-04-08T03:11:30.057Z,27.67
2024-04-08T03:12:30.000Z,27.68
2024-04-08T03:13:30.000Z,27.68
2024-04-08T03:14:30.053Z,27.65
2024-04-08T03:15:30.019Z,27.67
2024-04-08T03:16:30.012Z,27.65
2024-04-08T03:17:30.040Z,27.65
2024-04-08T03:18:30.030Z,27.67
2024-04-08T03:19:44.828Z,27.65
2024-04-08T03:20:30.080Z,27.68
2024-04-08T03:21:30.027Z,27.67
2024-04-08T03:22:46.233Z,27.68
2024-04-08T03:23:30.173Z,27.67
2024-04-08T03:24:30.134Z,27.67
2024-04-08T03:25:30.165Z,27.65
2024-04-08T03:26:30.288Z,27.67
2024-04-08T03:27:30.249Z,27.65
2024-04-08T03:28:30.266Z,27.65
2024-04-08T03:29:30.347Z,27.65
2024-04-08T03:30:30.302Z,27.64
2024-04-08T03:31:30.305Z,27.67
2024-04-08T03:32:30.363Z,27.67
2024-04-08T03:33:30.379Z,27.65
2024-04-08T03:34:30.383Z,27.64
2024-04-08T03:35:30.415Z,27.64
2024-04-08T03:36:30.409Z,27.64
2024-04-08T03:37:30.461Z,27.65
2024-04-08T03:38:31.503Z,27.62
2024-04-08T03:39:30.471Z,27.64
2024-04-08T03:40:30.482Z,27.68
2024-04-08T03:41:30.547Z,27.64
2024-04-08T03:42:30.579Z,27.64
2024-04-08T03:43:30.582Z,27.64
2024-04-08T03:44:45.408Z,27.62
2024-04-08T03:45:30.636Z,27.64
2024-04-08T03:46:30.645Z,27.60
2024-04-08T03:47:51.712Z,27.62
2024-04-08T03:48:30.624Z,27.60
2024-04-08T03:49:30.627Z,27.61
2024-04-08T03:50:54.850Z,27.62
2024-04-08T03:51:31.826Z,27.61
2024-04-08T03:52:30.665Z,27.62
2024-04-08T03:53:30.637Z,27.64
2024-04-08T03:54:30.639Z,27.62
2024-04-08T03:55:30.645Z,27.62
2024-04-08T03:56:30.641Z,27.61
2024-04-08T03:57:30.641Z,27.61
2024-04-08T03:58:30.706Z,27.61
2024-04-08T03:59:30.641Z,27.61
2024-04-08T04:00:30.650Z,27.61
2024-04-08T04:01:30.650Z,27.61
2024-04-08T04:02:30.650Z,27.61
2024-04-08T04:03:30.667Z,27.61
2024-04-08T04:04:30.661Z,27.61
2024-04-08T04:05:30.659Z,27.61
2024-04-08T04:06:37.354Z,27.61
2024-04-08T04:07:30.663Z,27.61
2024-04-08T04:08:30.668Z,27.58
2024-04-08T04:09:30.660Z,27.60
2024-04-08T04:10:30.743Z,27.61
2024-04-08T04:11:30.737Z,27.61
2024-04-08T04:12:51.797Z,27.61
2024-04-08T04:13:30.746Z,27.61
2024-04-08T04:14:30.750Z,27.61
2024-04-08T04:15:58.368Z,27.62
2024-04-08T04:16:30.751Z,27.60
2024-04-08T04:17:30.784Z,27.60
2024-04-08T04:18:30.774Z,27.61
2024-04-08T04:19:30.768Z,27.61
2024-04-08T04:20:30.765Z,27.58
2024-04-08T04:21:30.769Z,27.62
2024-04-08T04:22:30.778Z,27.60
2024-04-08T04:23:30.773Z,27.61
2024-04-08T04:24:30.771Z,27.60
2024-04-08T04:25:30.790Z,27.58
2024-04-08T04:26:30.774Z,27.58
2024-04-08T04:27:30.778Z,27.61
2024-04-08T04:28:30.781Z,27.60
2024-04-08T04:29:30.775Z,27.58
2024-04-08T04:30:30.787Z,27.61
2024-04-08T04:31:31.387Z,27.58
2024-04-08T04:32:30.780Z,27.60
2024-04-08T04:33:30.779Z,27.60
2024-04-08T04:34:30.800Z,27.58
2024-04-08T04:35:30.798Z,27.60
2024-04-08T04:36:30.782Z,27.58
2024-04-08T04:37:30.784Z,27.57
2024-04-08T04:38:38.180Z,27.58
2024-04-08T04:39:38.112Z,27.57
2024-04-08T04:40:52.642Z,27.54
2024-04-08T04:41:38.297Z,27.57
2024-04-08T04:42:38.276Z,27.58
2024-04-08T04:43:38.293Z,27.57
2024-04-08T04:44:38.347Z,27.60
2024-04-08T04:45:38.344Z,27.58
2024-04-08T04:46:59.368Z,27.58
2024-04-08T04:47:38.434Z,27.55
2024-04-08T04:48:38.370Z,27.60
2024-04-08T04:49:38.371Z,27.57
2024-04-08T04:50:38.436Z,27.58
2024-04-08T04:51:38.360Z,27.55
2024-04-08T04:52:38.357Z,27.57
2024-04-08T04:53:38.400Z,27.58
2024-04-08T04:54:38.372Z,27.57
2024-04-08T04:55:38.378Z,27.58
2024-04-08T04:56:38.498Z,27.57
2024-04-08T04:57:38.368Z,27.57
2024-04-08T04:58:38.363Z,27.57
2024-04-08T04:59:38.395Z,27.57
2024-04-08T05:00:38.447Z,27.60
2024-04-08T05:01:38.377Z,27.58
2024-04-08T05:02:38.448Z,27.55
2024-04-08T05:03:38.376Z,27.60
2024-04-08T05:04:38.393Z,27.57
2024-04-08T05:05:38.440Z,27.58
2024-04-08T05:06:38.428Z,27.58
2024-04-08T05:07:38.389Z,27.60
2024-04-08T05:08:53.185Z,27.58
2024-04-08T05:09:38.399Z,27.60
2024-04-08T05:10:38.389Z,27.58
2024-04-08T05:12:06.166Z,27.60
2024-04-08T05:12:38.390Z,27.60
2024-04-08T05:13:38.395Z,27.57
2024-04-08T05:14:38.412Z,27.58
2024-04-08T05:15:38.404Z,27.60
2024-04-08T05:16:38.662Z,27.58
2024-04-08T05:17:38.432Z,27.60
2024-04-08T05:18:38.413Z,27.58
2024-04-08T05:19:38.420Z,27.58
2024-04-08T05:20:38.420Z,27.58
2024-04-08T05:21:38.404Z,27.60
2024-04-08T05:22:38.409Z,27.60
2024-04-08T05:23:38.434Z,27.58
2024-04-08T05:24:38.407Z,27.58
2024-04-08T05:25:38.531Z,27.58
2024-04-08T05:26:38.813Z,27.61
2024-04-08T05:27:38.421Z,27.60
2024-04-08T05:28:38.426Z,27.61
2024-04-08T05:29:38.464Z,27.61
2024-04-08T05:30:46.177Z,27.61
2024-04-08T05:31:38.487Z,27.61
2024-04-08T05:32:38.474Z,27.67
2024-04-08T05:33:53.168Z,27.67
2024-04-08T05:34:38.431Z,27.68
2024-04-08T05:35:38.704Z,27.71
2024-04-08T05:36:59.427Z,27.72
2024-04-08T05:37:38.470Z,27.74
2024-04-08T05:38:38.435Z,27.77
2024-04-08T05:39:59.460Z,27.78
2024-04-08T05:40:38.680Z,27.80
2024-04-08T05:41:38.698Z,27.83
2024-04-08T05:42:38.443Z,27.84
2024-04-08T05:43:38.432Z,27.88
2024-04-08T05:44:38.460Z,27.87
2024-04-08T05:45:38.453Z,27.80
2024-04-08T05:46:38.456Z,27.83
2024-04-08T05:47:38.503Z,27.83
2024-04-08T05:48:38.548Z,27.88
2024-04-08T05:49:38.452Z,27.89
2024-04-08T05:50:38.474Z,27.91
2024-04-08T05:51:38.455Z,27.91
2024-04-08T05:52:38.464Z,27.97
2024-04-08T05:53:39.204Z,27.98
2024-04-08T05:54:38.478Z,27.99
2024-04-08T05:55:38.467Z,28.02
2024-04-08T05:56:38.511Z,27.98
2024-04-08T05:57:38.475Z,27.99
2024-04-08T05:59:02.787Z,28.04
2024-04-08T05:59:38.483Z,28.05
2024-04-08T06:00:40.246Z,28.07
2024-04-08T06:01:56.737Z,28.08
2024-04-08T06:02:38.527Z,28.08
2024-04-08T06:03:38.488Z,28.11
2024-04-08T06:04:54.696Z,28.12
2024-04-08T06:05:38.498Z,28.11
2024-04-08T06:06:38.499Z,28.15
2024-04-08T06:07:38.488Z,28.18
2024-04-08T06:08:38.543Z,28.15
2024-04-08T06:09:38.497Z,28.18
2024-04-08T06:10:38.518Z,28.19
2024-04-08T06:11:41.103Z,28.21
2024-04-08T06:12:38.524Z,28.22
2024-04-08T06:13:38.511Z,28.22
2024-04-08T06:14:38.546Z,28.25
2024-04-08T06:15:38.528Z,28.25
2024-04-08T06:16:38.538Z,28.23
2024-04-08T06:17:38.534Z,28.23
2024-04-08T06:18:38.518Z,28.28
2024-04-08T06:19:38.508Z,28.29
2024-04-08T06:20:38.572Z,28.31
2024-04-08T06:21:38.519Z,28.35
2024-04-08T06:22:38.526Z,28.35
2024-04-08T06:23:38.556Z,28.38
2024-04-08T06:24:38.517Z,28.39
2024-04-08T06:25:38.524Z,28.42
2024-04-08T06:26:45.237Z,28.46
2024-04-08T06:27:38.534Z,28.49
2024-04-08T06:28:38.531Z,28.49
2024-04-08T06:29:53.207Z,28.52
2024-04-08T06:30:38.558Z,28.52
2024-04-08T06:31:38.534Z,28.56
2024-04-08T06:33:09.774Z,28.56
2024-04-08T06:33:38.560Z,28.55
2024-04-08T06:34:38.549Z,28.53
2024-04-08T06:35:38.572Z,28.52
2024-04-08T06:36:38.548Z,28.53
2024-04-08T06:37:38.568Z,28.51
2024-04-08T06:38:38.578Z,28.48
2024-04-08T06:39:38.649Z,28.48
2024-04-08T06:40:38.553Z,28.46
2024-04-08T06:41:38.578Z,28.42
2024-04-08T06:42:38.559Z,28.42
2024-04-08T06:43:38.608Z,28.43
2024-04-08T06:44:38.579Z,28.45
2024-04-08T06:45:38.563Z,28.43
2024-04-08T06:46:38.557Z,28.41
2024-04-08T06:47:38.662Z,28.41
2024-04-08T06:48:39.705Z,28.43
2024-04-08T06:49:38.572Z,28.39
2024-04-08T06:50:38.644Z,28.43
2024-04-08T06:51:38.571Z,28.43
2024-04-08T06:52:38.631Z,28.41
2024-04-08T06:53:38.616Z,28.41
2024-04-08T06:54:53.198Z,28.43
2024-04-08T06:55:38.866Z,28.42
2024-04-08T06:56:38.976Z,28.42
2024-04-08T06:58:00.921Z,28.43
2024-04-08T06:58:38.909Z,28.42
2024-04-08T06:59:38.948Z,28.45
2024-04-08T07:00:38.961Z,28.46
2024-04-08T07:01:38.936Z,28.46
2024-04-08T07:02:38.951Z,28.48
2024-04-08T07:03:38.935Z,28.51
2024-04-08T07:04:38.939Z,28.51
2024-04-08T07:05:38.985Z,28.52
2024-04-08T07:06:38.945Z,28.52
2024-04-08T07:07:38.948Z,28.53
2024-04-08T07:08:38.983Z,28.51
2024-04-08T07:09:38.942Z,28.55
2024-04-08T07:10:38.988Z,28.56
2024-04-08T07:11:38.969Z,28.56
2024-04-08T07:12:38.964Z,28.58
2024-04-08T07:13:41.712Z,28.60
2024-04-08T07:14:39.062Z,28.66
2024-04-08T07:15:41.349Z,28.67
2024-04-08T07:16:38.974Z,28.66
2024-04-08T07:17:39.033Z,28.67
2024-04-08T07:18:38.961Z,28.64
2024-04-08T07:19:55.271Z,28.66
2024-04-08T07:20:38.988Z,28.66
2024-04-08T07:21:38.978Z,28.66
2024-04-08T07:22:49.122Z,28.64
2024-04-08T07:23:39.019Z,28.67
2024-04-08T07:24:38.978Z,28.66
2024-04-08T07:26:00.011Z,28.66
2024-04-08T07:26:39.032Z,28.67
2024-04-08T07:27:38.985Z,28.70
2024-04-08T07:28:38.987Z,28.67
2024-04-08T07:29:39.043Z,28.70
2024-04-08T07:30:39.032Z,28.70
2024-04-08T07:31:38.994Z,28.73
2024-04-08T07:32:39.064Z,28.76
2024-04-08T07:33:39.003Z,28.79
2024-04-08T07:34:38.991Z,28.79
2024-04-08T07:35:39.109Z,28.79
2024-04-08T07:36:38.992Z,28.82
2024-04-08T07:37:39.000Z,28.80
2024-04-08T07:38:52.607Z,28.84
2024-04-08T07:39:40.855Z,28.86
2024-04-08T07:40:39.028Z,28.89
2024-04-08T07:41:39.047Z,28.90
2024-04-08T07:42:39.014Z,28.92
2024-04-08T07:43:39.016Z,28.92
2024-04-08T07:44:53.760Z,28.94
2024-04-08T07:45:39.052Z,28.97
2024-04-08T07:46:39.033Z,28.99
2024-04-08T07:47:53.790Z,29.00
2024-04-08T07:48:39.038Z,29.02
2024-04-08T07:49:39.047Z,29.00
2024-04-08T07:51:00.116Z,29.03
2024-04-08T07:51:39.051Z,29.04
2024-04-08T07:52:39.060Z,29.04
2024-04-08T07:53:39.113Z,29.06
2024-04-08T07:54:39.037Z,29.09
2024-04-08T07:55:39.063Z,29.13
2024-04-08T07:56:39.108Z,29.14
2024-04-08T07:57:39.044Z,29.16
2024-04-08T07:58:39.051Z,29.14
2024-04-08T07:59:39.116Z,29.21
2024-04-08T08:00:43.921Z,29.24
2024-04-08T08:01:40.061Z,29.28
2024-04-08T08:02:39.104Z,29.27
2024-04-08T08:03:39.063Z,29.28
2024-04-08T08:04:39.134Z,29.28
2024-04-08T08:05:39.117Z,29.30
2024-04-08T08:06:42.248Z,29.30
2024-04-08T08:07:39.064Z,29.31
2024-04-08T08:08:39.105Z,29.31
2024-04-08T08:09:55.248Z,29.33
2024-04-08T08:10:39.096Z,29.34
2024-04-08T08:11:39.105Z,29.34
2024-04-08T08:12:55.252Z,29.34
2024-04-08T08:13:39.096Z,29.31
2024-04-08T08:14:39.142Z,29.34
2024-04-08T08:15:46.775Z,29.31
2024-04-08T08:16:39.091Z,29.31
2024-04-08T08:17:39.170Z,29.31
2024-04-08T08:19:10.354Z,29.31
2024-04-08T08:19:39.083Z,29.33
2024-04-08T08:20:39.138Z,29.31
2024-04-08T08:21:39.172Z,29.30
2024-04-08T08:22:39.086Z,29.28
2024-04-08T08:23:39.132Z,29.28
2024-04-08T08:24:39.084Z,29.27
2024-04-08T08:25:39.104Z,29.30
2024-04-08T08:26:39.129Z,29.30
2024-04-08T08:27:39.090Z,29.33
2024-04-08T08:28:39.087Z,29.36
2024-04-08T08:29:39.166Z,29.33
2024-04-08T08:30:39.099Z,29.34
2024-04-08T08:31:39.109Z,29.37
2024-04-08T08:32:39.112Z,29.34
2024-04-08T08:33:39.097Z,29.37
2024-04-08T08:34:39.102Z,29.36
2024-04-08T08:35:39.315Z,29.37
2024-04-08T08:36:39.115Z,29.37
2024-04-08T08:37:40.911Z,29.38
2024-04-08T08:38:39.147Z,29.38
2024-04-08T08:39:39.135Z,29.38
2024-04-08T08:40:49.796Z,29.38
2024-04-08T08:41:39.170Z,29.38
2024-04-08T08:42:39.140Z,29.37
2024-04-08T08:44:00.156Z,29.38
2024-04-08T08:44:39.240Z,29.37
2024-04-08T08:45:39.177Z,29.38
2024-04-08T08:46:39.147Z,29.34
2024-04-08T08:47:39.873Z,29.37
2024-04-08T08:48:39.151Z,29.36
2024-04-08T08:49:39.165Z,29.37
2024-04-08T08:50:39.277Z,29.34
2024-04-08T08:51:39.160Z,29.34
2024-04-08T08:52:39.165Z,29.36
2024-04-08T08:53:39.235Z,29.36
2024-04-08T08:54:39.170Z,29.34
2024-04-08T08:55:39.203Z,29.34
2024-04-08T08:56:39.236Z,29.33
2024-04-08T08:57:39.172Z,29.31
2024-04-08T08:58:39.167Z,29.28
2024-04-08T08:59:39.177Z,29.30
2024-04-08T09:00:39.216Z,29.24
2024-04-08T09:01:39.183Z,29.23
2024-04-08T09:02:39.188Z,29.23
2024-04-08T09:03:39.202Z,29.23
2024-04-08T09:04:39.194Z,29.20
2024-04-08T09:05:39.238Z,29.18
2024-04-08T09:06:39.180Z,29.18
2024-04-08T09:07:39.175Z,29.17
2024-04-08T09:09:02.330Z,29.16
2024-04-08T09:09:39.213Z,29.17
2024-04-08T09:10:39.219Z,29.18
2024-04-08T09:12:02.293Z,29.17
2024-04-08T09:12:39.200Z,29.18
2024-04-08T09:13:39.198Z,29.17
2024-04-08T09:14:39.195Z,29.18
2024-04-08T09:15:39.327Z,29.17
2024-04-08T09:16:39.202Z,29.17
2024-04-08T09:17:39.232Z,29.17
2024-04-08T09:18:40.204Z,29.17
2024-04-08T09:19:39.257Z,29.17
2024-04-08T09:20:39.282Z,29.18
2024-04-08T09:21:41.696Z,29.18
2024-04-08T09:22:39.483Z,29.17
2024-04-08T09:23:39.525Z,29.23
2024-04-08T09:24:39.582Z,29.23
2024-04-08T09:25:39.691Z,29.21
2024-04-08T09:26:39.777Z,29.27
2024-04-08T09:27:40.773Z,29.24
2024-04-08T09:28:39.804Z,29.21
2024-04-08T09:29:39.960Z,29.26
2024-04-08T09:30:40.310Z,29.28
2024-04-08T09:31:39.981Z,29.28
2024-04-08T09:32:40.010Z,29.30
2024-04-08T09:33:40.052Z,29.34
2024-04-08T09:34:40.069Z,29.37
2024-04-08T09:35:40.156Z,29.36
2024-04-08T09:37:01.227Z,29.41
2024-04-08T09:37:40.212Z,29.44
2024-04-08T09:38:40.284Z,29.43
2024-04-08T09:40:01.259Z,29.43
2024-04-08T09:40:40.258Z,29.44
2024-04-08T09:41:40.270Z,29.47
2024-04-08T09:42:40.227Z,29.51
2024-04-08T09:43:40.226Z,29.51
2024-04-08T09:44:40.250Z,29.54
2024-04-08T09:45:40.236Z,29.56
2024-04-08T09:46:40.235Z,29.56
2024-04-08T09:47:40.288Z,29.58
2024-04-08T09:48:40.245Z,29.60
2024-04-08T09:49:47.886Z,29.60
2024-04-08T09:50:41.246Z,29.64
2024-04-08T09:51:40.261Z,29.65
2024-04-08T09:52:40.261Z,29.68
2024-04-08T09:53:40.258Z,29.68
2024-04-08T09:54:40.259Z,29.67
2024-04-08T09:55:40.271Z,29.70
2024-04-08T09:56:40.251Z,29.71
2024-04-08T09:57:40.258Z,29.71
2024-04-08T09:58:47.342Z,29.70
2024-04-08T09:59:40.258Z,29.70
2024-04-08T10:00:40.256Z,29.72
2024-04-08T10:02:04.813Z,29.72
2024-04-08T10:02:41.292Z,29.74
2024-04-08T10:03:40.266Z,29.72
2024-04-08T10:05:11.465Z,29.68
2024-04-08T10:05:40.281Z,29.70
2024-04-08T10:06:40.301Z,29.72
2024-04-08T10:07:40.265Z,29.74
2024-04-08T10:08:40.279Z,29.74
2024-04-08T10:09:40.288Z,29.75
2024-04-08T10:10:40.278Z,29.78
2024-04-08T10:11:40.315Z,29.80
2024-04-08T10:12:40.296Z,29.82
2024-04-08T10:13:40.280Z,29.77
2024-04-08T10:14:40.285Z,29.78
2024-04-08T10:15:40.280Z,29.78
2024-04-08T10:16:40.287Z,29.80
2024-04-08T10:17:40.288Z,29.82
2024-04-08T10:18:40.314Z,29.82
2024-04-08T10:19:40.287Z,29.85
2024-04-08T10:20:46.949Z,29.85
2024-04-08T10:21:40.299Z,29.88
2024-04-08T10:22:40.302Z,29.89
2024-04-08T10:24:41.922Z,29.92
2024-04-08T10:25:40.312Z,29.95
2024-04-08T10:26:58.322Z,29.97
2024-04-08T10:27:40.314Z,29.98
2024-04-08T10:28:40.302Z,29.97
2024-04-08T10:30:01.446Z,30.00
2024-04-08T10:30:40.319Z,29.95
2024-04-08T10:31:40.332Z,29.95
2024-04-08T10:33:02.406Z,30.00
2024-04-08T10:33:40.420Z,30.01
2024-04-08T10:34:40.322Z,30.02
2024-04-08T10:35:40.336Z,30.02
2024-04-08T10:36:40.416Z,30.07
2024-04-08T10:37:40.325Z,30.07
2024-04-08T10:38:40.329Z,30.08
2024-04-08T10:39:40.321Z,30.08
2024-04-08T10:40:40.329Z,30.07
2024-04-08T10:41:40.337Z,30.05
2024-04-08T10:42:40.379Z,30.05
2024-04-08T10:43:40.331Z,30.07
2024-04-08T10:44:40.353Z,30.09
2024-04-08T10:45:40.363Z,30.04
2024-04-08T10:46:40.347Z,30.07
2024-04-08T10:47:40.382Z,30.05
2024-04-08T10:48:47.320Z,29.98
2024-04-08T10:49:40.364Z,29.93
2024-04-08T10:50:40.355Z,29.93
2024-04-08T10:51:45.828Z,29.89
2024-04-08T10:52:40.493Z,29.84
2024-04-08T10:53:45.369Z,29.84
2024-04-08T10:54:55.318Z,29.82
2024-04-08T10:55:40.567Z,29.80
2024-04-08T10:56:40.534Z,29.78
2024-04-08T10:57:56.836Z,29.77
2024-04-08T10:58:40.589Z,29.75
2024-04-08T10:59:40.535Z,29.74
2024-04-08T11:00:40.550Z,29.74
2024-04-08T11:01:40.793Z,29.71
2024-04-08T11:02:40.543Z,29.72
2024-04-08T11:03:40.547Z,29.71
2024-04-08T11:04:40.539Z,29.71
2024-04-08T11:05:40.542Z,29.68
2024-04-08T11:06:40.543Z,29.67
2024-04-08T11:07:40.565Z,29.65
2024-04-08T11:08:40.562Z,29.67
2024-04-08T11:09:40.556Z,29.68
2024-04-08T11:10:40.539Z,29.67
2024-04-08T11:11:40.546Z,29.63
2024-04-08T11:12:40.558Z,29.61
2024-04-08T11:13:40.555Z,29.63
2024-04-08T11:14:40.568Z,29.60
2024-04-08T11:15:40.553Z,29.58
2024-04-08T11:17:01.560Z,29.58
2024-04-08T11:17:40.587Z,29.57
2024-04-08T11:18:40.721Z,29.56
2024-04-08T11:19:55.334Z,29.56
2024-04-08T11:20:40.560Z,29.54
2024-04-08T11:21:40.564Z,29.53
2024-04-08T11:22:55.324Z,29.51
2024-04-08T11:23:40.584Z,29.48
2024-04-08T11:24:40.567Z,29.48
2024-04-08T11:26:04.837Z,29.47
2024-04-08T11:26:49.062Z,29.47
2024-04-08T11:27:41.682Z,29.47
2024-04-08T11:28:40.586Z,29.44
2024-04-08T11:29:40.578Z,29.43
2024-04-08T11:30:41.994Z,29.44
2024-04-08T11:31:40.737Z,29.44
2024-04-08T11:32:40.875Z,29.44
2024-04-08T11:33:40.958Z,29.43
2024-04-08T11:34:40.873Z,29.43
2024-04-08T11:35:40.936Z,29.44
2024-04-08T11:36:41.116Z,29.41
2024-04-08T11:37:43.575Z,29.43
2024-04-08T11:38:42.336Z,29.40
2024-04-08T11:39:41.022Z,29.38
2024-04-08T11:40:41.022Z,29.40
2024-04-08T11:41:48.868Z,29.38
2024-04-08T11:42:41.039Z,29.37
2024-04-08T11:43:42.217Z,29.36
2024-04-08T11:44:55.887Z,29.36
2024-04-08T11:45:41.250Z,29.36
2024-04-08T11:46:41.522Z,29.34
2024-04-08T11:48:02.236Z,29.33
2024-04-08T11:48:41.220Z,29.34
2024-04-08T11:49:41.441Z,29.34
2024-04-08T11:51:02.197Z,29.34
2024-04-08T11:51:41.181Z,29.31
2024-04-08T11:52:47.959Z,29.31
2024-04-08T11:53:41.160Z,29.33
2024-04-08T11:54:49.941Z,29.33
2024-04-08T11:55:42.175Z,29.34
2024-04-08T11:56:41.176Z,29.31
2024-04-08T11:57:41.180Z,29.33
2024-04-08T11:58:41.185Z,29.31
2024-04-08T11:59:41.180Z,29.34
2024-04-08T12:00:41.225Z,29.33
2024-04-08T12:01:44.080Z,29.31
2024-04-08T12:02:41.191Z,29.34
2024-04-08T12:03:41.211Z,29.33
2024-04-08T12:04:41.194Z,29.33
2024-04-08T12:05:41.230Z,29.34
2024-04-08T12:06:46.354Z,29.34
2024-04-08T12:07:43.367Z,29.31
2024-04-08T12:08:41.197Z,29.34
2024-04-08T12:09:43.858Z,29.34
2024-04-08T12:10:41.204Z,29.34
2024-04-08T12:11:41.246Z,29.34
2024-04-08T12:12:43.872Z,29.33
2024-04-08T12:13:43.935Z,29.33
2024-04-08T12:14:41.216Z,29.31
2024-04-08T12:16:02.245Z,29.33
2024-04-08T12:16:41.228Z,29.36
2024-04-08T12:17:41.249Z,29.36
2024-04-08T12:18:55.886Z,29.36
2024-04-08T12:19:43.364Z,29.34
2024-04-08T12:20:41.237Z,29.33
2024-04-08T12:21:41.370Z,29.34
2024-04-08T12:22:41.223Z,29.33
2024-04-08T12:23:41.223Z,29.33
2024-04-08T12:24:41.224Z,29.34
2024-04-08T12:25:41.224Z,29.33
2024-04-08T12:26:41.258Z,29.36
2024-04-08T12:27:41.240Z,29.38
2024-04-08T12:28:41.260Z,29.43
2024-04-08T12:29:41.249Z,29.46
2024-04-08T12:30:41.240Z,29.47
2024-04-08T12:31:42.867Z,29.48
2024-04-08T12:32:41.276Z,29.50
2024-04-08T12:33:41.325Z,29.54
2024-04-08T12:34:41.250Z,29.54
2024-04-08T12:35:41.243Z,29.56
2024-04-08T12:36:41.321Z,29.57
2024-04-08T12:37:55.867Z,29.58
2024-04-08T12:38:41.535Z,29.57
2024-04-08T12:39:41.556Z,29.60
2024-04-08T12:41:02.608Z,29.60
2024-04-08T12:41:41.637Z,29.60
2024-04-08T12:42:41.605Z,29.61
2024-04-08T12:44:02.618Z,29.61
2024-04-08T12:44:43.684Z,29.63
2024-04-08T12:45:41.664Z,29.63
2024-04-08T12:46:41.709Z,29.63
2024-04-08T12:47:41.703Z,29.64
2024-04-08T12:48:43.147Z,29.64
2024-04-08T12:49:41.783Z,29.64
2024-04-08T12:50:41.875Z,29.63
2024-04-08T12:51:45.911Z,29.67
2024-04-08T12:52:43.012Z,29.64
2024-04-08T12:53:42.037Z,29.65